createdAt,value
2023-05-29T00:00:54.448Z,11.96
2023-05-29T00:01:54.454Z,11.83
2023-05-29T00:02:54.483Z,11.64
2023-05-29T00:03:54.676Z,11.57
2023-05-29T00:04:54.535Z,11.55
2023-05-29T00:05:54.682Z,11.57
2023-05-29T00:06:54.390Z,11.61
2023-05-29T00:07:54.377Z,11.65
2023-05-29T00:08:54.353Z,11.67
2023-05-29T00:09:54.342Z,11.76
2023-05-29T00:10:54.347Z,11.82
2023-05-29T00:11:54.318Z,11.86
2023-05-29T00:12:54.317Z,11.90
2023-05-29T00:13:54.373Z,11.94
2023-05-29T00:14:54.294Z,11.91
2023-05-29T00:15:54.509Z,11.98
2023-05-29T00:16:54.312Z,11.95
2023-05-29T00:17:54.280Z,11.94
2023-05-29T00:18:54.264Z,11.96
2023-05-29T00:19:54.235Z,11.95
2023-05-29T00:20:54.301Z,11.88
2023-05-29T00:21:54.224Z,11.70
2023-05-29T00:22:54.201Z,11.55
2023-05-29T00:23:54.204Z,11.52
2023-05-29T00:24:54.179Z,11.46
2023-05-29T00:25:54.339Z,11.37
2023-05-29T00:26:54.178Z,11.27
2023-05-29T00:27:54.135Z,11.18
2023-05-29T00:28:54.133Z,11.07
2023-05-29T00:29:54.141Z,11.03
2023-05-29T00:30:54.126Z,10.99
2023-05-29T00:31:54.137Z,10.99
2023-05-29T00:32:54.118Z,10.92
2023-05-29T00:33:54.077Z,10.81
2023-05-29T00:34:54.072Z,10.73
2023-05-29T00:35:54.218Z,10.67
2023-05-29T00:36:54.082Z,10.66
2023-05-29T00:37:54.052Z,10.66
2023-05-29T00:38:54.024Z,10.64
2023-05-29T00:39:54.024Z,10.56
2023-05-29T00:40:54.014Z,10.48
2023-05-29T00:41:53.993Z,10.41
2023-05-29T00:42:53.999Z,10.36
2023-05-29T00:43:53.982Z,10.29
2023-05-29T00:44:53.960Z,10.22
2023-05-29T00:45:54.009Z,10.14
2023-05-29T00:46:53.954Z,10.15
2023-05-29T00:47:53.958Z,10.22
2023-05-29T00:48:53.948Z,10.27
2023-05-29T00:49:53.916Z,10.38
2023-05-29T00:50:54.125Z,10.51
2023-05-29T00:51:53.876Z,10.60
2023-05-29T00:52:53.895Z,10.67
2023-05-29T00:53:53.873Z,10.76
2023-05-29T00:54:53.893Z,10.84
2023-05-29T00:55:53.867Z,10.92
2023-05-29T00:56:53.831Z,11.00
2023-05-29T00:57:53.822Z,11.07
2023-05-29T00:58:53.813Z,11.14
2023-05-29T00:59:53.790Z,11.21
2023-05-29T01:00:54.187Z,11.24
2023-05-29T01:01:53.812Z,11.25
2023-05-29T01:02:54.085Z,11.29
2023-05-29T01:03:53.781Z,11.39
2023-05-29T01:04:53.753Z,11.42
2023-05-29T01:05:53.749Z,11.43
2023-05-29T01:06:53.734Z,11.44
2023-05-29T01:07:53.713Z,11.49
2023-05-29T01:08:53.693Z,11.49
2023-05-29T01:09:53.713Z,11.52
2023-05-29T01:10:53.798Z,11.51
2023-05-29T01:11:53.682Z,11.46
2023-05-29T01:12:53.669Z,11.49
2023-05-29T01:13:53.692Z,11.51
2023-05-29T01:14:53.655Z,11.51
2023-05-29T01:15:53.691Z,11.47
2023-05-29T01:16:53.603Z,11.44
2023-05-29T01:17:53.651Z,11.39
2023-05-29T01:18:53.585Z,11.36
2023-05-29T01:19:53.577Z,11.27
2023-05-29T01:20:53.898Z,11.14
2023-05-29T01:21:53.572Z,11.02
2023-05-29T01:22:53.532Z,10.89
2023-05-29T01:23:53.535Z,10.84
2023-05-29T01:24:53.525Z,10.81
2023-05-29T01:25:53.517Z,10.79
2023-05-29T01:26:53.506Z,10.82
2023-05-29T01:27:53.484Z,10.82
2023-05-29T01:28:53.495Z,10.71
2023-05-29T01:29:53.463Z,10.67
2023-05-29T01:30:53.670Z,10.68
2023-05-29T01:31:53.521Z,10.61
2023-05-29T01:32:53.456Z,10.55
2023-05-29T01:33:53.432Z,10.48
2023-05-29T01:34:53.435Z,10.44
2023-05-29T01:35:53.402Z,10.32
2023-05-29T01:36:53.410Z,10.22
2023-05-29T01:37:55.282Z,10.18
2023-05-29T01:38:53.380Z,10.20
2023-05-29T01:39:53.377Z,10.22
2023-05-29T01:40:53.626Z,10.15
2023-05-29T01:41:53.332Z,9.97
2023-05-29T01:42:53.327Z,9.93
2023-05-29T01:43:53.338Z,9.97
2023-05-29T01:44:53.302Z,9.96
2023-05-29T01:45:53.288Z,9.89
2023-05-29T01:46:53.372Z,9.90
2023-05-29T01:47:53.322Z,9.94
2023-05-29T01:48:53.258Z,9.99
2023-05-29T01:49:53.264Z,9.99
2023-05-29T01:50:53.397Z,10.05
2023-05-29T01:51:53.256Z,10.04
2023-05-29T01:52:53.237Z,10.04
2023-05-29T01:53:53.215Z,10.07
2023-05-29T01:54:53.208Z,10.12
2023-05-29T01:55:53.206Z,10.17
2023-05-29T01:56:53.182Z,10.17
2023-05-29T01:57:53.170Z,10.07
2023-05-29T01:58:53.156Z,9.96
2023-05-29T01:59:53.150Z,9.91
2023-05-29T02:00:53.409Z,9.87
2023-05-29T02:01:53.142Z,9.71
2023-05-29T02:02:53.178Z,9.57
2023-05-29T02:03:53.124Z,9.54
2023-05-29T02:04:53.098Z,9.53
2023-05-29T02:05:53.089Z,9.53
2023-05-29T02:06:53.072Z,9.54
2023-05-29T02:07:53.096Z,9.57
2023-05-29T02:08:53.079Z,9.61
2023-05-29T02:09:53.047Z,9.69
2023-05-29T02:10:53.090Z,9.78
2023-05-29T02:11:53.021Z,9.81
2023-05-29T02:12:53.042Z,9.89
2023-05-29T02:13:53.003Z,9.93
2023-05-29T02:14:53.006Z,10.01
2023-05-29T02:15:52.982Z,10.04
2023-05-29T02:16:53.035Z,10.11
2023-05-29T02:17:53.020Z,10.17
2023-05-29T02:18:52.938Z,10.25
2023-05-29T02:19:52.941Z,10.23
2023-05-29T02:20:53.120Z,10.17
2023-05-29T02:21:52.906Z,10.14
2023-05-29T02:22:52.894Z,10.08
2023-05-29T02:23:52.889Z,10.04
2023-05-29T02:24:52.875Z,9.97
2023-05-29T02:25:52.876Z,9.97
2023-05-29T02:26:52.878Z,9.93
2023-05-29T02:27:52.843Z,9.89
2023-05-29T02:28:52.834Z,9.79
2023-05-29T02:29:52.844Z,9.68
2023-05-29T02:30:52.875Z,9.60
2023-05-29T02:31:52.822Z,9.48
2023-05-29T02:32:52.860Z,9.43
2023-05-29T02:33:52.783Z,9.36
2023-05-29T02:34:52.774Z,9.32
2023-05-29T02:35:52.802Z,9.31
2023-05-29T02:36:52.757Z,9.33
2023-05-29T02:37:52.755Z,9.26
2023-05-29T02:38:52.736Z,9.28
2023-05-29T02:39:52.724Z,9.29
2023-05-29T02:40:52.722Z,9.29
2023-05-29T02:41:52.717Z,9.29
2023-05-29T02:42:52.698Z,9.31
2023-05-29T02:43:52.685Z,9.29
2023-05-29T02:44:52.671Z,9.32
2023-05-29T02:45:52.701Z,9.33
2023-05-29T02:46:53.626Z,9.32
2023-05-29T02:47:52.664Z,9.36
2023-05-29T02:48:52.637Z,9.38
2023-05-29T02:49:52.573Z,9.42
2023-05-29T02:50:52.719Z,9.47
2023-05-29T02:51:52.599Z,9.56
2023-05-29T02:52:52.568Z,9.60
2023-05-29T02:53:52.573Z,9.66
2023-05-29T02:54:52.576Z,9.74
2023-05-29T02:55:52.556Z,9.78
2023-05-29T02:56:52.530Z,9.69
2023-05-29T02:57:52.540Z,9.54
2023-05-29T02:58:52.486Z,9.47
2023-05-29T02:59:52.454Z,9.35
2023-05-29T03:00:52.459Z,9.18
2023-05-29T03:01:52.533Z,9.08
2023-05-29T03:02:52.439Z,8.98
2023-05-29T03:03:52.512Z,8.99
2023-05-29T03:04:52.387Z,9.02
2023-05-29T03:05:52.416Z,8.99
2023-05-29T03:06:52.390Z,8.94
2023-05-29T03:07:52.372Z,8.91
2023-05-29T03:08:52.348Z,8.91
2023-05-29T03:09:52.338Z,8.94
2023-05-29T03:10:52.349Z,8.92
2023-05-29T03:11:52.326Z,8.87
2023-05-29T03:12:52.337Z,8.86
2023-05-29T03:13:52.296Z,8.91
2023-05-29T03:14:52.339Z,8.92
2023-05-29T03:15:52.358Z,8.89
2023-05-29T03:16:52.257Z,8.79
2023-05-29T03:17:52.298Z,8.79
2023-05-29T03:18:52.243Z,8.79
2023-05-29T03:19:52.536Z,8.83
2023-05-29T03:20:52.246Z,8.91
2023-05-29T03:21:52.223Z,9.01
2023-05-29T03:22:52.204Z,9.05
2023-05-29T03:23:52.195Z,9.13
2023-05-29T03:24:52.190Z,9.18
2023-05-29T03:25:52.165Z,9.23
2023-05-29T03:26:52.154Z,9.26
2023-05-29T03:27:52.161Z,9.28
2023-05-29T03:28:52.130Z,9.29
2023-05-29T03:29:52.141Z,9.31
2023-05-29T03:30:52.187Z,9.31
2023-05-29T03:31:52.173Z,9.33
2023-05-29T03:32:52.138Z,9.33
2023-05-29T03:33:52.084Z,9.33
2023-05-29T03:34:52.068Z,9.33
2023-05-29T03:35:52.074Z,9.32
2023-05-29T03:36:52.070Z,9.29
2023-05-29T03:37:52.046Z,9.28
2023-05-29T03:38:52.023Z,9.23
2023-05-29T03:39:52.020Z,9.21
2023-05-29T03:40:52.007Z,9.24
2023-05-29T03:41:52.007Z,9.23
2023-05-29T03:42:52.010Z,9.21
2023-05-29T03:43:51.993Z,9.20
2023-05-29T03:44:52.036Z,9.20
2023-05-29T03:45:52.006Z,9.20
2023-05-29T03:46:51.978Z,9.20
2023-05-29T03:47:52.001Z,9.21
2023-05-29T03:48:51.951Z,9.21
2023-05-29T03:49:51.915Z,9.23
2023-05-29T03:50:51.908Z,9.21
2023-05-29T03:51:51.900Z,9.18
2023-05-29T03:52:51.889Z,9.23
2023-05-29T03:53:51.875Z,9.21
2023-05-29T03:54:51.881Z,9.24
2023-05-29T03:55:51.862Z,9.28
2023-05-29T03:56:51.831Z,9.26
2023-05-29T03:57:51.836Z,9.29
2023-05-29T03:58:51.807Z,9.28
2023-05-29T03:59:51.815Z,9.29
2023-05-29T04:00:51.812Z,9.31
2023-05-29T04:01:51.799Z,9.32
2023-05-29T04:02:51.896Z,9.29
2023-05-29T04:03:51.877Z,9.38
2023-05-29T04:04:51.754Z,9.40
2023-05-29T04:05:51.766Z,9.43
2023-05-29T04:06:51.728Z,9.43
2023-05-29T04:07:56.253Z,9.47
2023-05-29T04:08:51.703Z,9.47
2023-05-29T04:09:51.714Z,9.48
2023-05-29T04:10:51.678Z,9.54
2023-05-29T04:11:51.679Z,9.56
2023-05-29T04:12:51.664Z,9.57
2023-05-29T04:13:51.656Z,9.56
2023-05-29T04:14:51.635Z,9.54
2023-05-29T04:15:51.667Z,9.54
2023-05-29T04:16:51.714Z,9.51
2023-05-29T04:17:51.654Z,9.54
2023-05-29T04:18:51.605Z,9.54
2023-05-29T04:19:51.594Z,9.51
2023-05-29T04:20:51.635Z,9.51
2023-05-29T04:21:51.569Z,9.51
2023-05-29T04:22:51.564Z,9.50
2023-05-29T04:23:51.548Z,9.51
2023-05-29T04:24:51.560Z,9.54
2023-05-29T04:25:51.524Z,9.54
2023-05-29T04:26:51.505Z,9.53
2023-05-29T04:27:51.500Z,9.56
2023-05-29T04:28:51.495Z,9.57
2023-05-29T04:29:51.497Z,9.54
2023-05-29T04:30:51.485Z,9.57
2023-05-29T04:31:51.468Z,9.61
2023-05-29T04:32:51.468Z,9.64
2023-05-29T04:33:51.446Z,9.64
2023-05-29T04:34:51.430Z,9.57
2023-05-29T04:35:51.425Z,9.54
2023-05-29T04:36:51.401Z,9.50
2023-05-29T04:37:51.401Z,9.50
2023-05-29T04:38:51.372Z,9.51
2023-05-29T04:39:51.375Z,9.54
2023-05-29T04:40:51.489Z,9.58
2023-05-29T04:41:51.362Z,9.58
2023-05-29T04:42:51.344Z,9.58
2023-05-29T04:43:51.336Z,9.60
2023-05-29T04:44:51.307Z,9.65
2023-05-29T04:45:51.316Z,9.69
2023-05-29T04:46:51.352Z,9.71
2023-05-29T04:47:51.338Z,9.75
2023-05-29T04:48:51.270Z,9.78
2023-05-29T04:49:51.283Z,9.76
2023-05-29T04:50:51.250Z,9.83
2023-05-29T04:51:51.237Z,9.87
2023-05-29T04:52:51.232Z,9.91
2023-05-29T04:53:51.229Z,9.96
2023-05-29T04:54:51.205Z,10.02
2023-05-29T04:55:51.206Z,10.09
2023-05-29T04:56:51.194Z,10.08
2023-05-29T04:57:51.176Z,10.08
2023-05-29T04:58:51.168Z,10.08
2023-05-29T04:59:51.171Z,10.02
2023-05-29T05:00:51.148Z,10.02
2023-05-29T05:01:51.178Z,10.04
2023-05-29T05:02:51.155Z,10.07
2023-05-29T05:03:51.160Z,10.08
2023-05-29T05:04:51.108Z,10.11
2023-05-29T05:05:51.108Z,10.15
2023-05-29T05:06:51.088Z,10.17
2023-05-29T05:07:51.094Z,10.23
2023-05-29T05:08:51.062Z,10.25
2023-05-29T05:09:51.054Z,10.29
2023-05-29T05:10:51.044Z,10.32
2023-05-29T05:11:51.031Z,10.38
2023-05-29T05:12:51.022Z,10.38
2023-05-29T05:13:51.012Z,10.44
2023-05-29T05:14:51.028Z,10.45
2023-05-29T05:15:50.995Z,10.51
2023-05-29T05:16:51.016Z,10.52
2023-05-29T05:17:51.090Z,10.56
2023-05-29T05:18:50.954Z,10.61
2023-05-29T05:19:50.958Z,10.60
2023-05-29T05:20:50.954Z,10.61
2023-05-29T05:21:52.978Z,10.63
2023-05-29T05:22:50.924Z,10.66
2023-05-29T05:23:58.210Z,10.67
2023-05-29T05:24:50.930Z,10.67
2023-05-29T05:25:50.906Z,10.71
2023-05-29T05:26:50.867Z,10.74
2023-05-29T05:27:50.855Z,10.76
2023-05-29T05:28:50.845Z,10.78
2023-05-29T05:29:50.898Z,10.79
2023-05-29T05:30:50.831Z,10.81
2023-05-29T05:31:50.841Z,10.79
2023-05-29T05:32:50.870Z,10.79
2023-05-29T05:33:50.862Z,10.76
2023-05-29T05:34:50.809Z,10.74
2023-05-29T05:35:50.791Z,10.78
2023-05-29T05:36:50.790Z,10.78
2023-05-29T05:37:50.763Z,10.82
2023-05-29T05:38:50.754Z,10.86
2023-05-29T05:39:50.746Z,10.92
2023-05-29T05:40:50.726Z,10.99
2023-05-29T05:41:50.740Z,11.04
2023-05-29T05:42:50.703Z,11.09
2023-05-29T05:43:50.689Z,11.14
2023-05-29T05:44:50.683Z,11.15
2023-05-29T05:45:50.693Z,11.15
2023-05-29T05:46:50.673Z,11.15
2023-05-29T05:47:50.705Z,11.18
2023-05-29T05:48:50.660Z,11.21
2023-05-29T05:49:50.616Z,11.21
2023-05-29T05:50:50.621Z,11.24
2023-05-29T05:51:50.880Z,11.24
2023-05-29T05:52:50.591Z,11.25
2023-05-29T05:53:50.586Z,11.28
2023-05-29T05:54:50.578Z,11.32
2023-05-29T05:55:50.555Z,11.33
2023-05-29T05:56:50.558Z,11.37
2023-05-29T05:57:50.567Z,11.36
2023-05-29T05:58:50.527Z,11.36
2023-05-29T05:59:50.519Z,11.40
2023-05-29T06:00:50.527Z,11.42
2023-05-29T06:01:50.501Z,11.47
2023-05-29T06:02:50.561Z,11.51
2023-05-29T06:03:50.552Z,11.54
2023-05-29T06:04:50.597Z,11.57
2023-05-29T06:05:50.471Z,11.57
2023-05-29T06:06:50.482Z,11.57
2023-05-29T06:07:50.449Z,11.61
2023-05-29T06:08:50.424Z,11.62
2023-05-29T06:09:50.414Z,11.61
2023-05-29T06:10:50.407Z,11.64
2023-05-29T06:11:50.402Z,11.65
2023-05-29T06:12:50.389Z,11.65
2023-05-29T06:13:50.381Z,11.70
2023-05-29T06:14:50.357Z,11.67
2023-05-29T06:15:50.390Z,11.67
2023-05-29T06:16:50.356Z,11.64
2023-05-29T06:17:50.357Z,11.60
2023-05-29T06:18:50.333Z,11.58
2023-05-29T06:19:50.304Z,11.60
2023-05-29T06:20:50.321Z,11.61
2023-05-29T06:21:50.289Z,11.69
2023-05-29T06:22:50.283Z,11.75
2023-05-29T06:23:50.264Z,11.83
2023-05-29T06:24:50.263Z,11.90
2023-05-29T06:25:50.245Z,11.99
2023-05-29T06:26:50.252Z,12.07
2023-05-29T06:27:50.226Z,12.09
2023-05-29T06:28:50.205Z,12.07
2023-05-29T06:29:50.224Z,12.05
2023-05-29T06:30:50.215Z,12.01
2023-05-29T06:31:50.197Z,12.01
2023-05-29T06:32:50.191Z,11.96
2023-05-29T06:33:50.157Z,11.94
2023-05-29T06:34:50.152Z,11.94
2023-05-29T06:35:50.142Z,11.94
2023-05-29T06:36:50.124Z,11.90
2023-05-29T06:37:50.948Z,11.98
2023-05-29T06:38:50.155Z,12.02
2023-05-29T06:39:50.127Z,12.10
2023-05-29T06:40:50.094Z,12.19
2023-05-29T06:41:50.084Z,12.29
2023-05-29T06:42:50.091Z,12.32
2023-05-29T06:43:50.943Z,12.38
2023-05-29T06:44:50.114Z,12.42
2023-05-29T06:45:50.038Z,12.46
2023-05-29T06:46:50.075Z,12.50
2023-05-29T06:47:50.084Z,12.56
2023-05-29T06:48:50.012Z,12.59
2023-05-29T06:49:49.985Z,12.59
2023-05-29T06:50:49.983Z,12.60
2023-05-29T06:51:49.959Z,12.64
2023-05-29T06:52:49.964Z,12.67
2023-05-29T06:53:49.946Z,12.67
2023-05-29T06:54:49.951Z,12.70
2023-05-29T06:55:49.938Z,12.68
2023-05-29T06:56:58.432Z,12.67
2023-05-29T06:57:49.901Z,12.67
2023-05-29T06:58:49.895Z,12.65
2023-05-29T06:59:49.884Z,12.64
2023-05-29T07:00:49.935Z,12.64
2023-05-29T07:01:49.887Z,12.67
2023-05-29T07:02:49.900Z,12.62
2023-05-29T07:03:49.878Z,12.62
2023-05-29T07:04:49.816Z,12.64
2023-05-29T07:05:49.809Z,12.71
2023-05-29T07:06:49.798Z,12.77
2023-05-29T07:07:49.805Z,12.82
2023-05-29T07:08:49.789Z,12.86
2023-05-29T07:09:49.759Z,12.93
2023-05-29T07:10:49.758Z,13.00
2023-05-29T07:11:49.743Z,13.01
2023-05-29T07:12:49.755Z,13.05
2023-05-29T07:13:49.735Z,13.08
2023-05-29T07:14:49.710Z,13.11
2023-05-29T07:15:49.707Z,13.11
2023-05-29T07:16:49.747Z,13.11
2023-05-29T07:17:49.731Z,12.97
2023-05-29T07:18:49.676Z,12.93
2023-05-29T07:19:49.639Z,12.96
2023-05-29T07:20:49.689Z,12.97
2023-05-29T07:21:49.832Z,13.00
2023-05-29T07:22:49.726Z,13.07
2023-05-29T07:23:49.618Z,13.10
2023-05-29T07:24:49.598Z,13.10
2023-05-29T07:25:49.593Z,13.07
2023-05-29T07:26:49.585Z,13.05
2023-05-29T07:27:49.560Z,13.01
2023-05-29T07:28:49.582Z,13.01
2023-05-29T07:29:49.578Z,13.05
2023-05-29T07:30:49.539Z,13.12
2023-05-29T07:31:49.534Z,13.23
2023-05-29T07:32:49.528Z,13.22
2023-05-29T07:33:49.487Z,13.22
2023-05-29T07:34:49.491Z,13.17
2023-05-29T07:35:49.487Z,13.20
2023-05-29T07:36:49.470Z,13.25
2023-05-29T07:37:49.440Z,13.33
2023-05-29T07:38:49.434Z,13.41
2023-05-29T07:39:49.444Z,13.33
2023-05-29T07:40:49.416Z,13.28
2023-05-29T07:41:49.450Z,13.29
2023-05-29T07:42:49.420Z,13.26
2023-05-29T07:43:49.380Z,13.15
2023-05-29T07:44:49.379Z,13.08
2023-05-29T07:45:49.389Z,13.07
2023-05-29T07:46:49.444Z,13.11
2023-05-29T07:47:49.366Z,13.14
2023-05-29T07:48:49.351Z,13.20
2023-05-29T07:49:49.317Z,13.22
2023-05-29T07:50:49.317Z,13.26
2023-05-29T07:51:49.315Z,13.25
2023-05-29T07:52:49.289Z,13.29
2023-05-29T07:53:49.285Z,13.32
2023-05-29T07:54:49.293Z,13.39
2023-05-29T07:55:49.248Z,13.38
2023-05-29T07:56:49.246Z,13.36
2023-05-29T07:57:49.233Z,13.33
2023-05-29T07:58:49.223Z,13.28
2023-05-29T07:59:49.209Z,13.20
2023-05-29T08:00:49.206Z,13.11
2023-05-29T08:01:49.190Z,13.11
2023-05-29T08:02:49.345Z,13.15
2023-05-29T08:03:49.229Z,13.22
2023-05-29T08:04:49.236Z,13.28
2023-05-29T08:05:49.168Z,13.38
2023-05-29T08:06:49.138Z,13.51
2023-05-29T08:07:49.124Z,13.60
2023-05-29T08:08:49.145Z,13.71
2023-05-29T08:09:49.098Z,13.70
2023-05-29T08:10:49.098Z,13.64
2023-05-29T08:11:49.081Z,13.57
2023-05-29T08:12:49.094Z,13.48
2023-05-29T08:13:49.051Z,13.39
2023-05-29T08:14:49.054Z,13.33
2023-05-29T08:15:49.073Z,13.32
2023-05-29T08:16:49.079Z,13.32
2023-05-29T08:17:49.046Z,13.33
2023-05-29T08:18:49.021Z,13.39
2023-05-29T08:19:49.001Z,13.42
2023-05-29T08:20:49.040Z,13.44
2023-05-29T08:21:48.984Z,13.49
2023-05-29T08:22:48.968Z,13.54
2023-05-29T08:23:48.982Z,13.60
2023-05-29T08:24:48.997Z,13.75
2023-05-29T08:25:48.939Z,13.67
2023-05-29T08:26:48.928Z,13.59
2023-05-29T08:27:48.903Z,13.62
2023-05-29T08:28:48.942Z,13.64
2023-05-29T08:29:48.954Z,13.73
2023-05-29T08:30:48.893Z,13.70
2023-05-29T08:31:48.918Z,13.70
2023-05-29T08:32:48.931Z,13.73
2023-05-29T08:33:48.835Z,13.79
2023-05-29T08:34:48.826Z,13.89
2023-05-29T08:35:48.833Z,13.97
2023-05-29T08:36:48.826Z,14.04
2023-05-29T08:37:48.854Z,14.09
2023-05-29T08:38:48.809Z,14.15
2023-05-29T08:39:48.804Z,14.20
2023-05-29T08:40:48.769Z,14.21
2023-05-29T08:41:48.766Z,14.20
2023-05-29T08:42:48.764Z,14.22
2023-05-29T08:43:48.730Z,14.29
2023-05-29T08:44:48.726Z,14.36
2023-05-29T08:45:48.778Z,14.42
2023-05-29T08:46:48.710Z,14.27
2023-05-29T08:47:48.761Z,14.21
2023-05-29T08:48:48.689Z,14.24
2023-05-29T08:49:48.680Z,14.15
2023-05-29T08:50:48.676Z,14.17
2023-05-29T08:51:48.649Z,14.22
2023-05-29T08:52:48.652Z,14.32
2023-05-29T08:53:48.629Z,14.50
2023-05-29T08:54:48.632Z,14.64
2023-05-29T08:55:48.609Z,14.72
2023-05-29T08:56:48.599Z,14.70
2023-05-29T08:57:48.586Z,14.61
2023-05-29T08:58:48.614Z,14.60
2023-05-29T08:59:48.575Z,14.62
2023-05-29T09:00:48.563Z,14.72
2023-05-29T09:01:48.536Z,14.83
2023-05-29T09:02:48.667Z,14.80
2023-05-29T09:03:48.588Z,14.75
2023-05-29T09:04:48.508Z,14.73
2023-05-29T09:05:48.538Z,14.80
2023-05-29T09:06:48.532Z,14.86
2023-05-29T09:07:48.478Z,14.91
2023-05-29T09:08:48.476Z,14.94
2023-05-29T09:09:48.478Z,14.88
2023-05-29T09:10:48.447Z,14.78
2023-05-29T09:11:48.455Z,14.73
2023-05-29T09:12:48.454Z,14.77
2023-05-29T09:13:48.409Z,14.88
2023-05-29T09:14:48.530Z,14.96
2023-05-29T09:15:48.439Z,15.09
2023-05-29T09:16:48.404Z,15.09
2023-05-29T09:17:48.451Z,15.09
2023-05-29T09:18:48.383Z,15.11
2023-05-29T09:19:48.344Z,15.19
2023-05-29T09:20:48.365Z,15.25
2023-05-29T09:21:48.331Z,15.31
2023-05-29T09:22:48.315Z,15.34
2023-05-29T09:23:48.302Z,15.35
2023-05-29T09:24:48.336Z,15.36
2023-05-29T09:25:48.280Z,15.35
2023-05-29T09:26:48.271Z,15.28
2023-05-29T09:27:48.278Z,15.31
2023-05-29T09:28:48.312Z,15.29
2023-05-29T09:29:48.242Z,15.31
2023-05-29T09:30:48.319Z,15.39
2023-05-29T09:31:48.237Z,15.41
2023-05-29T09:32:48.216Z,15.44
2023-05-29T09:33:48.192Z,15.53
2023-05-29T09:34:48.212Z,15.50
2023-05-29T09:35:48.173Z,15.51
2023-05-29T09:36:48.166Z,15.54
2023-05-29T09:37:48.170Z,15.56
2023-05-29T09:38:51.494Z,15.51
2023-05-29T09:39:48.143Z,15.46
2023-05-29T09:40:48.155Z,15.36
2023-05-29T09:41:48.115Z,15.25
2023-05-29T09:42:48.107Z,15.19
2023-05-29T09:43:48.097Z,15.14
2023-05-29T09:44:48.071Z,15.16
2023-05-29T09:45:48.084Z,15.17
2023-05-29T09:46:48.096Z,15.23
2023-05-29T09:47:48.101Z,15.36
2023-05-29T09:48:48.036Z,15.47
2023-05-29T09:49:48.052Z,15.59
2023-05-29T09:50:48.011Z,15.67
2023-05-29T09:51:48.008Z,15.65
2023-05-29T09:52:47.989Z,15.62
2023-05-29T09:53:47.981Z,15.51
2023-05-29T09:54:48.062Z,15.51
2023-05-29T09:55:47.954Z,15.53
2023-05-29T09:56:47.975Z,15.57
2023-05-29T09:57:47.940Z,15.65
2023-05-29T09:58:47.947Z,15.69
2023-05-29T09:59:47.990Z,15.68
2023-05-29T10:00:47.898Z,15.68
2023-05-29T10:01:47.966Z,15.71
2023-05-29T10:02:47.972Z,15.75
2023-05-29T10:03:47.930Z,15.74
2023-05-29T10:04:47.865Z,15.72
2023-05-29T10:05:47.868Z,15.69
2023-05-29T10:06:47.890Z,15.75
2023-05-29T10:07:47.832Z,15.83
2023-05-29T10:08:47.814Z,15.90
2023-05-29T10:09:47.814Z,16.00
2023-05-29T10:10:47.790Z,16.05
2023-05-29T10:11:47.790Z,16.08
2023-05-29T10:12:47.783Z,16.09
2023-05-29T10:13:47.763Z,16.05
2023-05-29T10:14:47.755Z,15.96
2023-05-29T10:15:47.747Z,15.96
2023-05-29T10:16:47.815Z,15.97
2023-05-29T10:17:47.759Z,16.00
2023-05-29T10:18:47.724Z,16.00
2023-05-29T10:19:47.733Z,16.02
2023-05-29T10:20:47.794Z,16.07
2023-05-29T10:21:47.704Z,16.15
2023-05-29T10:22:47.684Z,16.20
2023-05-29T10:23:47.668Z,16.17
2023-05-29T10:24:47.680Z,16.04
2023-05-29T10:25:47.644Z,15.92
2023-05-29T10:26:48.032Z,15.89
2023-05-29T10:27:47.610Z,15.82
2023-05-29T10:28:47.603Z,15.82
2023-05-29T10:29:47.616Z,15.83
2023-05-29T10:30:47.596Z,15.75
2023-05-29T10:31:47.708Z,15.75
2023-05-29T10:32:49.016Z,15.76
2023-05-29T10:33:47.596Z,15.83
2023-05-29T10:34:47.533Z,15.89
2023-05-29T10:35:47.552Z,16.02
2023-05-29T10:36:47.519Z,16.05
2023-05-29T10:37:47.508Z,16.08
2023-05-29T10:38:47.494Z,16.09
2023-05-29T10:39:47.503Z,16.12
2023-05-29T10:40:47.479Z,16.20
2023-05-29T10:41:47.469Z,16.23
2023-05-29T10:42:50.617Z,16.31
2023-05-29T10:43:47.445Z,16.25
2023-05-29T10:44:47.434Z,16.25
2023-05-29T10:45:47.579Z,16.25
2023-05-29T10:46:47.484Z,16.31
2023-05-29T10:47:47.433Z,16.31
2023-05-29T10:48:47.389Z,16.38
2023-05-29T10:49:47.376Z,16.38
2023-05-29T10:50:47.361Z,16.38
2023-05-29T10:51:47.362Z,16.41
2023-05-29T10:52:47.340Z,16.41
2023-05-29T10:53:47.332Z,16.43
2023-05-29T10:54:47.340Z,16.42
2023-05-29T10:55:47.311Z,16.42
2023-05-29T10:56:47.289Z,16.49
2023-05-29T10:57:47.311Z,16.50
2023-05-29T10:58:47.267Z,16.52
2023-05-29T10:59:47.266Z,16.52
2023-05-29T11:00:47.263Z,16.52
2023-05-29T11:01:47.281Z,16.50
2023-05-29T11:02:47.260Z,16.52
2023-05-29T11:03:47.242Z,16.60
2023-05-29T11:04:47.201Z,16.58
2023-05-29T11:05:47.215Z,16.61
2023-05-29T11:06:47.268Z,16.63
2023-05-29T11:07:47.181Z,16.61
2023-05-29T11:08:47.250Z,16.64
2023-05-29T11:09:47.174Z,16.63
2023-05-29T11:10:47.165Z,16.66
2023-05-29T11:11:47.144Z,16.58
2023-05-29T11:12:47.122Z,16.57
2023-05-29T11:13:47.119Z,16.53
2023-05-29T11:14:47.102Z,16.50
2023-05-29T11:15:47.099Z,16.50
2023-05-29T11:16:47.093Z,16.50
2023-05-29T11:17:47.103Z,16.56
2023-05-29T11:18:47.128Z,16.63
2023-05-29T11:19:47.055Z,16.68
2023-05-29T11:20:47.191Z,16.78
2023-05-29T11:21:47.051Z,16.89
2023-05-29T11:22:47.003Z,17.00
2023-05-29T11:23:47.012Z,17.01
2023-05-29T11:24:47.010Z,17.04
2023-05-29T11:25:46.977Z,16.98
2023-05-29T11:26:47.000Z,16.93
2023-05-29T11:27:46.957Z,16.93
2023-05-29T11:28:46.986Z,16.96
2023-05-29T11:29:46.946Z,16.85
2023-05-29T11:30:46.935Z,16.78
2023-05-29T11:31:46.968Z,16.81
2023-05-29T11:32:46.910Z,16.91
2023-05-29T11:33:46.936Z,16.89
2023-05-29T11:34:46.894Z,16.93
2023-05-29T11:35:46.890Z,16.97
2023-05-29T11:36:46.870Z,16.98
2023-05-29T11:37:46.865Z,17.04
2023-05-29T11:38:46.838Z,17.11
2023-05-29T11:39:46.831Z,17.14
2023-05-29T11:40:46.853Z,17.14
2023-05-29T11:41:46.815Z,17.16
2023-05-29T11:42:46.801Z,17.15
2023-05-29T11:43:46.787Z,17.19
2023-05-29T11:44:46.766Z,17.21
2023-05-29T11:45:46.778Z,17.22
2023-05-29T11:46:46.819Z,17.25
2023-05-29T11:47:46.789Z,17.33
2023-05-29T11:48:46.728Z,17.31
2023-05-29T11:49:46.733Z,17.36
2023-05-29T11:50:46.708Z,17.38
2023-05-29T11:51:46.700Z,17.48
2023-05-29T11:52:46.684Z,17.49
2023-05-29T11:53:46.696Z,17.46
2023-05-29T11:54:46.666Z,17.49
2023-05-29T11:55:46.672Z,17.43
2023-05-29T11:56:46.658Z,17.40
2023-05-29T11:57:46.628Z,17.38
2023-05-29T11:58:46.620Z,17.37
2023-05-29T11:59:46.615Z,17.46
2023-05-29T12:00:46.606Z,17.48
2023-05-29T12:01:46.608Z,17.49
2023-05-29T12:02:46.715Z,17.48
2023-05-29T12:03:46.604Z,17.40
2023-05-29T12:04:46.563Z,17.34
2023-05-29T12:05:46.610Z,17.26
2023-05-29T12:06:46.540Z,17.21
2023-05-29T12:07:46.537Z,17.21
2023-05-29T12:08:46.586Z,17.23
2023-05-29T12:09:46.496Z,17.28
2023-05-29T12:10:46.490Z,17.34
2023-05-29T12:11:46.490Z,17.36
2023-05-29T12:12:46.502Z,17.48
2023-05-29T12:13:46.550Z,17.52
2023-05-29T12:14:46.441Z,17.56
2023-05-29T12:15:46.521Z,17.59
2023-05-29T12:16:46.784Z,17.59
2023-05-29T12:17:46.564Z,17.58
2023-05-29T12:18:46.409Z,17.55
2023-05-29T12:19:46.487Z,17.52
2023-05-29T12:20:46.642Z,17.48
2023-05-29T12:21:46.366Z,17.46
2023-05-29T12:22:46.356Z,17.46
2023-05-29T12:23:46.352Z,17.43
2023-05-29T12:24:46.335Z,17.49
2023-05-29T12:25:46.344Z,17.52
2023-05-29T12:26:46.316Z,17.51
2023-05-29T12:27:46.309Z,17.52
2023-05-29T12:28:46.287Z,17.55
2023-05-29T12:29:46.306Z,17.63
2023-05-29T12:30:46.272Z,17.66
2023-05-29T12:31:46.315Z,17.70
2023-05-29T12:32:46.416Z,17.66
2023-05-29T12:33:46.255Z,17.59
2023-05-29T12:34:46.219Z,17.52
2023-05-29T12:35:46.235Z,17.48
2023-05-29T12:36:46.217Z,17.54
2023-05-29T12:37:46.188Z,17.56
2023-05-29T12:38:46.180Z,17.51
2023-05-29T12:39:46.181Z,17.52
2023-05-29T12:40:46.154Z,17.52
2023-05-29T12:41:46.161Z,17.59
2023-05-29T12:42:46.154Z,17.68
2023-05-29T12:43:46.141Z,17.77
2023-05-29T12:44:46.131Z,17.71
2023-05-29T12:45:46.118Z,17.64
2023-05-29T12:46:46.085Z,17.58
2023-05-29T12:47:46.146Z,17.55
2023-05-29T12:48:46.089Z,17.55
2023-05-29T12:49:46.070Z,17.52
2023-05-29T12:50:46.064Z,17.55
2023-05-29T12:51:46.051Z,17.62
2023-05-29T12:52:46.028Z,17.74
2023-05-29T12:53:46.034Z,17.89
2023-05-29T12:54:46.035Z,17.90
2023-05-29T12:55:46.003Z,17.95
2023-05-29T12:56:46.041Z,18.02
2023-05-29T12:57:45.988Z,18.08
2023-05-29T12:58:45.958Z,18.12